Aguanga, California
Current Conditions -  °F | °C
As of 8:15 PM on Thursday 27 Nov 2014 (Local Time) from KF70 Reporting Station
Clear Clear  
Wind Chill: 15°   Ceiling: Unl
Heat Index: 15°   Visibility: 10mi
Dew Point: -2°   Wind: 3mph
Humidity: 31%   Direction: 30°NNE
Pressure: 30.07"   Gusts: NA
Location:  33.44°N, 116.87°W
Report Text: KF70 280415Z AUTO 03003KT 10SM CLR 15/M02 A3007 RMK AO1
Loading
Personal Weather Stations






























Interactive Weather Map New forecast layout! Learn more

10-Day Weather Forecast

Advertisements
Track Severe Weather on mobile